CSC6138 ZBHH-ZLXN
Flight info
| Callsign | CSC6138 |
|---|---|
| Flight time | 1h 27m |
| Altitude | 36100 |
| Route | IBARO W47 IDSOT W48 MAKIP DCT MULOB W220 NIRUV B215 VENIV W198 PANRA |
| Aircraft | A321/M-SDE3FGHIRWY/LB1 |
Departure
| Time | 2026-05-04 08:33 |
|---|---|
| Airport | Hohhot Baita International Airport (ZBHH) |
Arrival
| Time | 2026-05-04 10:00 |
|---|---|
| Airport | Xining Caojiabao International Airport (ZLXN) |
| Time | Latitude | Longitude | Altitude | Speed | Heading |
|---|---|---|---|---|---|
| 2026-05-04 08:03 | 40.85198 | 111.81109 | 3532 ft | 0 kts | 342° |
| 2026-05-04 08:19 | 40.85189 | 111.81112 | 3559 ft | 3 kts | 342° |
| 2026-05-04 08:19 | 40.85169 | 111.81120 | 3532 ft | 3 kts | 342° |
| 2026-05-04 08:20 | 40.85151 | 111.81127 | 3532 ft | 3 kts | 349° |
| 2026-05-04 08:20 | 40.85134 | 111.81128 | 3532 ft | 3 kts | 27° |
| 2026-05-04 08:20 | 40.85121 | 111.81112 | 3532 ft | 3 kts | 66° |
| 2026-05-04 08:20 | 40.85114 | 111.81089 | 3532 ft | 2 kts | 73° |
| 2026-05-04 08:21 | 40.85113 | 111.81084 | 3532 ft | 0 kts | 72° |
| 2026-05-04 08:24 | 40.85243 | 111.81653 | 3532 ft | 6 kts | 98° |
| 2026-05-04 08:24 | 40.85203 | 111.81691 | 3532 ft | 9 kts | 160° |
| 2026-05-04 08:24 | 40.85126 | 111.81724 | 3532 ft | 15 kts | 163° |
| 2026-05-04 08:24 | 40.85035 | 111.81761 | 3533 ft | 9 kts | 162° |
| 2026-05-04 08:25 | 40.85009 | 111.81825 | 3534 ft | 9 kts | 76° |
| 2026-05-04 08:25 | 40.85033 | 111.81922 | 3534 ft | 14 kts | 73° |
| 2026-05-04 08:25 | 40.85068 | 111.82072 | 3534 ft | 20 kts | 72° |
| 2026-05-04 08:25 | 40.85117 | 111.82274 | 3534 ft | 26 kts | 73° |
| 2026-05-04 08:26 | 40.85166 | 111.82482 | 3534 ft | 23 kts | 72° |
| 2026-05-04 08:27 | 40.85510 | 111.83949 | 3534 ft | 25 kts | 72° |
| 2026-05-04 08:28 | 40.85564 | 111.84174 | 3534 ft | 24 kts | 72° |
| 2026-05-04 08:28 | 40.85599 | 111.84322 | 3534 ft | 12 kts | 72° |
| 2026-05-04 08:28 | 40.85604 | 111.84401 | 3535 ft | 7 kts | 120° |
| 2026-05-04 08:28 | 40.85566 | 111.84427 | 3537 ft | 5 kts | 162° |
| 2026-05-04 08:29 | 40.85535 | 111.84440 | 3540 ft | 4 kts | 162° |
| 2026-05-04 08:29 | 40.85513 | 111.84449 | 3544 ft | 5 kts | 162° |
| 2026-05-04 08:29 | 40.85463 | 111.84463 | 3548 ft | 7 kts | 189° |
| 2026-05-04 08:31 | 40.84661 | 111.81050 | 4081 ft | 162 kts | 250° |
| 2026-05-04 08:33 | 40.78445 | 111.81079 | 6418 ft | 281 kts | 135° |
| 2026-05-04 08:33 | 40.77136 | 111.83087 | 6903 ft | 294 kts | 135° |
| 2026-05-04 08:35 | 40.64265 | 111.89275 | 10738 ft | 341 kts | 187° |
| 2026-05-04 08:35 | 40.61828 | 111.89058 | 10948 ft | 360 kts | 187° |
| 2026-05-04 08:35 | 40.59291 | 111.88847 | 11499 ft | 367 kts | 187° |
| 2026-05-04 08:35 | 40.56730 | 111.88639 | 12166 ft | 372 kts | 186° |
| 2026-05-04 08:37 | 40.40743 | 111.87327 | 16069 ft | 394 kts | 186° |
| 2026-05-04 08:37 | 40.38002 | 111.87088 | 16707 ft | 397 kts | 186° |
| 2026-05-04 08:37 | 40.36166 | 111.86932 | 17130 ft | 400 kts | 186° |
| 2026-05-04 08:38 | 40.33375 | 111.86696 | 17760 ft | 404 kts | 186° |
| 2026-05-04 08:38 | 40.30566 | 111.86461 | 18345 ft | 407 kts | 186° |
| 2026-05-04 08:38 | 40.26744 | 111.86145 | 18988 ft | 415 kts | 186° |
| 2026-05-04 08:40 | 40.06867 | 111.84491 | 22107 ft | 444 kts | 185° |
| 2026-05-04 08:40 | 40.03774 | 111.84212 | 22528 ft | 447 kts | 188° |
| 2026-05-04 08:40 | 40.00725 | 111.83425 | 22958 ft | 448 kts | 199° |
| 2026-05-04 08:41 | 39.97829 | 111.81924 | 23389 ft | 448 kts | 210° |
| 2026-05-04 08:41 | 39.95200 | 111.79778 | 23736 ft | 447 kts | 220° |
| 2026-05-04 08:41 | 39.92796 | 111.77191 | 24097 ft | 449 kts | 223° |
| 2026-05-04 08:41 | 39.90397 | 111.74575 | 24464 ft | 452 kts | 223° |
| 2026-05-04 08:42 | 39.87979 | 111.71947 | 24847 ft | 454 kts | 223° |
| 2026-05-04 08:42 | 39.85540 | 111.69309 | 25250 ft | 456 kts | 223° |
| 2026-05-04 08:42 | 39.83086 | 111.66659 | 25614 ft | 459 kts | 223° |
| 2026-05-04 08:42 | 39.80622 | 111.64001 | 25973 ft | 461 kts | 223° |
| 2026-05-04 08:43 | 39.78141 | 111.61326 | 26326 ft | 464 kts | 223° |
| 2026-05-04 08:43 | 39.75649 | 111.58643 | 26681 ft | 466 kts | 223° |
| 2026-05-04 08:43 | 39.73145 | 111.55950 | 27023 ft | 469 kts | 223° |
| 2026-05-04 08:43 | 39.70655 | 111.53271 | 27383 ft | 470 kts | 223° |
| 2026-05-04 08:44 | 39.68132 | 111.50556 | 27761 ft | 472 kts | 223° |
| 2026-05-04 08:44 | 39.65593 | 111.47827 | 28122 ft | 474 kts | 223° |
| 2026-05-04 08:46 | 39.47838 | 111.28841 | 31212 ft | 469 kts | 223° |
| 2026-05-04 08:46 | 39.45309 | 111.26148 | 31615 ft | 469 kts | 223° |
| 2026-05-04 08:46 | 39.42797 | 111.23475 | 32016 ft | 468 kts | 223° |
| 2026-05-04 08:46 | 39.40285 | 111.20801 | 32414 ft | 467 kts | 223° |
| 2026-05-04 08:47 | 39.37772 | 111.18131 | 32813 ft | 467 kts | 223° |
| 2026-05-04 08:47 | 39.35268 | 111.15474 | 33225 ft | 465 kts | 223° |
| 2026-05-04 08:47 | 39.32765 | 111.12822 | 33595 ft | 465 kts | 223° |
| 2026-05-04 08:47 | 39.30265 | 111.10171 | 33943 ft | 465 kts | 223° |
| 2026-05-04 08:48 | 39.27767 | 111.07525 | 34268 ft | 464 kts | 223° |
| 2026-05-04 08:48 | 39.25267 | 111.04883 | 34594 ft | 464 kts | 223° |
| 2026-05-04 08:48 | 39.22778 | 111.02250 | 34931 ft | 462 kts | 224° |
| 2026-05-04 08:48 | 39.20508 | 110.99359 | 35254 ft | 456 kts | 234° |
| 2026-05-04 08:49 | 39.18696 | 110.96053 | 35573 ft | 449 kts | 244° |
| 2026-05-04 08:50 | 39.16805 | 110.73194 | 35943 ft | 432 kts | 277° |
| 2026-05-04 08:50 | 39.16987 | 110.69329 | 35943 ft | 432 kts | 277° |
| 2026-05-04 08:51 | 39.17341 | 110.61590 | 35943 ft | 432 kts | 276° |
| 2026-05-04 08:51 | 39.17689 | 110.53860 | 35939 ft | 432 kts | 276° |
| 2026-05-04 08:52 | 39.18044 | 110.46114 | 35918 ft | 433 kts | 276° |
| 2026-05-04 08:52 | 39.18395 | 110.38371 | 35922 ft | 433 kts | 276° |
| 2026-05-04 08:54 | 39.19768 | 110.07289 | 35912 ft | 434 kts | 277° |
| 2026-05-04 08:55 | 39.20157 | 109.99496 | 35909 ft | 435 kts | 277° |
| 2026-05-04 08:55 | 39.20537 | 109.91768 | 35906 ft | 435 kts | 277° |
| 2026-05-04 09:01 | 39.23921 | 109.09703 | 35875 ft | 437 kts | 275° |
| 2026-05-04 09:01 | 39.24199 | 109.01852 | 35889 ft | 438 kts | 275° |
| 2026-05-04 09:02 | 39.24472 | 108.93998 | 35868 ft | 442 kts | 275° |
| 2026-05-04 09:02 | 39.24751 | 108.85990 | 35866 ft | 449 kts | 275° |
| 2026-05-04 09:03 | 39.25025 | 108.77922 | 35869 ft | 450 kts | 275° |
| 2026-05-04 09:03 | 39.25292 | 108.69849 | 35860 ft | 450 kts | 275° |
| 2026-05-04 09:04 | 39.25547 | 108.61783 | 35866 ft | 450 kts | 275° |
| 2026-05-04 09:04 | 39.25806 | 108.53694 | 35871 ft | 451 kts | 275° |
| 2026-05-04 09:05 | 39.26056 | 108.45601 | 35874 ft | 452 kts | 275° |
| 2026-05-04 09:05 | 39.26301 | 108.37511 | 35873 ft | 452 kts | 275° |
| 2026-05-04 09:06 | 39.26538 | 108.29405 | 35878 ft | 452 kts | 275° |
| 2026-05-04 09:08 | 39.27442 | 107.97032 | 35869 ft | 451 kts | 274° |
| 2026-05-04 09:08 | 39.27654 | 107.88933 | 35873 ft | 451 kts | 274° |
| 2026-05-04 09:09 | 39.27863 | 107.80837 | 35871 ft | 451 kts | 274° |
| 2026-05-04 09:09 | 39.28062 | 107.72753 | 35859 ft | 451 kts | 274° |
| 2026-05-04 09:10 | 39.27457 | 107.64688 | 35857 ft | 457 kts | 257° |
| 2026-05-04 09:10 | 39.26328 | 107.60843 | 35858 ft | 461 kts | 246° |
| 2026-05-04 09:10 | 39.24675 | 107.57289 | 35853 ft | 465 kts | 238° |
| 2026-05-04 09:11 | 39.20940 | 107.50471 | 35852 ft | 465 kts | 238° |
| 2026-05-04 09:11 | 39.17218 | 107.43647 | 35851 ft | 466 kts | 238° |
| 2026-05-04 09:12 | 39.13503 | 107.36815 | 35835 ft | 466 kts | 238° |
| 2026-05-04 09:14 | 38.98546 | 107.09562 | 35838 ft | 466 kts | 238° |
| 2026-05-04 09:14 | 38.94793 | 107.02787 | 35829 ft | 465 kts | 238° |
| 2026-05-04 09:15 | 38.91046 | 106.96015 | 35839 ft | 465 kts | 238° |
| 2026-05-04 09:15 | 38.87328 | 106.89290 | 35833 ft | 465 kts | 238° |
| 2026-05-04 09:17 | 38.70427 | 106.58993 | 35823 ft | 463 kts | 238° |
| 2026-05-04 09:18 | 38.66674 | 106.52305 | 35826 ft | 463 kts | 238° |
| 2026-05-04 09:18 | 38.62916 | 106.45619 | 35820 ft | 463 kts | 238° |
| 2026-05-04 09:19 | 38.59152 | 106.38947 | 35823 ft | 462 kts | 238° |
| 2026-05-04 09:19 | 38.55395 | 106.32283 | 35816 ft | 462 kts | 238° |
| 2026-05-04 09:20 | 38.52250 | 106.26708 | 35813 ft | 461 kts | 238° |
| 2026-05-04 09:20 | 38.48489 | 106.20068 | 35831 ft | 461 kts | 237° |
| 2026-05-04 09:21 | 38.44740 | 106.13486 | 35815 ft | 461 kts | 237° |
| 2026-05-04 09:21 | 38.40916 | 106.06897 | 35818 ft | 462 kts | 236° |
| 2026-05-04 09:22 | 38.37013 | 106.00402 | 35827 ft | 462 kts | 236° |
| 2026-05-04 09:22 | 38.33094 | 105.93909 | 35827 ft | 462 kts | 236° |
| 2026-05-04 09:23 | 38.29196 | 105.87407 | 35824 ft | 462 kts | 236° |
| 2026-05-04 09:23 | 38.25308 | 105.80914 | 35813 ft | 462 kts | 236° |
| 2026-05-04 09:25 | 38.09690 | 105.54993 | 35825 ft | 462 kts | 236° |
| 2026-05-04 09:26 | 38.05776 | 105.48532 | 35821 ft | 462 kts | 236° |
| 2026-05-04 09:26 | 38.01854 | 105.42083 | 35827 ft | 461 kts | 236° |
| 2026-05-04 09:27 | 37.97933 | 105.35633 | 35831 ft | 461 kts | 236° |
| 2026-05-04 09:27 | 37.94011 | 105.29186 | 35832 ft | 461 kts | 236° |
| 2026-05-04 09:28 | 37.90082 | 105.22762 | 35825 ft | 462 kts | 236° |
| 2026-05-04 09:28 | 37.86145 | 105.16334 | 35832 ft | 462 kts | 236° |
| 2026-05-04 09:29 | 37.82201 | 105.09904 | 35832 ft | 462 kts | 236° |
| 2026-05-04 09:29 | 37.78265 | 105.03492 | 35840 ft | 462 kts | 236° |
| 2026-05-04 09:30 | 37.74326 | 104.97081 | 35840 ft | 462 kts | 236° |
| 2026-05-04 09:30 | 37.70377 | 104.90679 | 35827 ft | 462 kts | 236° |
| 2026-05-04 09:31 | 37.66417 | 104.84273 | 35838 ft | 463 kts | 236° |
| 2026-05-04 09:31 | 37.62457 | 104.77876 | 35846 ft | 463 kts | 236° |
| 2026-05-04 09:32 | 37.58494 | 104.71477 | 35852 ft | 463 kts | 236° |
| 2026-05-04 09:34 | 37.42605 | 104.45924 | 35883 ft | 463 kts | 237° |
| 2026-05-04 09:34 | 37.38727 | 104.39460 | 35887 ft | 462 kts | 237° |
| 2026-05-04 09:35 | 37.34864 | 104.33003 | 35897 ft | 462 kts | 237° |
| 2026-05-04 09:35 | 37.30998 | 104.26607 | 35887 ft | 462 kts | 237° |
| 2026-05-04 09:37 | 37.18240 | 104.03579 | 35925 ft | 453 kts | 252° |
| 2026-05-04 09:37 | 37.17074 | 103.99914 | 35926 ft | 453 kts | 252° |
| 2026-05-04 09:38 | 37.14702 | 103.92572 | 35967 ft | 454 kts | 252° |
| 2026-05-04 09:38 | 37.12318 | 103.85252 | 35961 ft | 454 kts | 252° |
| 2026-05-04 09:39 | 37.09927 | 103.77908 | 35983 ft | 455 kts | 252° |
| 2026-05-04 09:39 | 37.07540 | 103.70563 | 35995 ft | 455 kts | 252° |
| 2026-05-04 09:40 | 37.05141 | 103.63232 | 36034 ft | 455 kts | 252° |
| 2026-05-04 09:40 | 37.02740 | 103.55902 | 36034 ft | 455 kts | 252° |
| 2026-05-04 09:41 | 37.01538 | 103.52227 | 35770 ft | 455 kts | 252° |
| 2026-05-04 09:42 | 36.93165 | 103.26797 | 30942 ft | 462 kts | 251° |
| 2026-05-04 09:43 | 36.91950 | 103.23076 | 29924 ft | 463 kts | 251° |
| 2026-05-04 09:43 | 36.90754 | 103.19370 | 28785 ft | 456 kts | 251° |
| 2026-05-04 09:43 | 36.89580 | 103.15718 | 27816 ft | 452 kts | 251° |
| 2026-05-04 09:43 | 36.88402 | 103.12052 | 26625 ft | 458 kts | 251° |
| 2026-05-04 09:44 | 36.87205 | 103.08349 | 25910 ft | 456 kts | 250° |
| 2026-05-04 09:44 | 36.86019 | 103.04702 | 25214 ft | 451 kts | 250° |
| 2026-05-04 09:44 | 36.84841 | 103.01089 | 24499 ft | 447 kts | 250° |
| 2026-05-04 09:46 | 36.76912 | 102.76860 | 19855 ft | 409 kts | 250° |
| 2026-05-04 09:46 | 36.75836 | 102.73578 | 19228 ft | 407 kts | 250° |
| 2026-05-04 09:46 | 36.74770 | 102.70332 | 18712 ft | 403 kts | 250° |
| 2026-05-04 09:47 | 36.73727 | 102.67156 | 18569 ft | 388 kts | 250° |
| 2026-05-04 09:47 | 36.72720 | 102.64092 | 18454 ft | 374 kts | 250° |
| 2026-05-04 09:49 | 36.64141 | 102.49369 | 16251 ft | 295 kts | 193° |
| 2026-05-04 09:49 | 36.62133 | 102.48932 | 16045 ft | 289 kts | 193° |
| 2026-05-04 09:49 | 36.60243 | 102.48326 | 16007 ft | 275 kts | 204° |
| 2026-05-04 09:51 | 36.50666 | 102.43717 | 14173 ft | 220 kts | 205° |
| 2026-05-04 09:51 | 36.49259 | 102.43034 | 13868 ft | 214 kts | 205° |
| 2026-05-04 09:51 | 36.47884 | 102.42359 | 13546 ft | 211 kts | 206° |
| 2026-05-04 09:51 | 36.46520 | 102.41687 | 13225 ft | 206 kts | 205° |
| 2026-05-04 09:52 | 36.45255 | 102.40940 | 12930 ft | 195 kts | 221° |
| 2026-05-04 09:52 | 36.44348 | 102.39756 | 12573 ft | 189 kts | 240° |
| 2026-05-04 09:52 | 36.43872 | 102.38245 | 12180 ft | 187 kts | 262° |
| 2026-05-04 09:52 | 36.43885 | 102.36669 | 11927 ft | 179 kts | 282° |
| 2026-05-04 09:53 | 36.44247 | 102.35260 | 11734 ft | 167 kts | 289° |
| 2026-05-04 09:53 | 36.44621 | 102.33935 | 11494 ft | 160 kts | 289° |
| 2026-05-04 09:53 | 36.44992 | 102.32620 | 11283 ft | 160 kts | 289° |
| 2026-05-04 09:53 | 36.45358 | 102.31321 | 11083 ft | 159 kts | 289° |
| 2026-05-04 09:54 | 36.45725 | 102.30020 | 10887 ft | 159 kts | 289° |
| 2026-05-04 09:54 | 36.46091 | 102.28720 | 10686 ft | 159 kts | 289° |
| 2026-05-04 09:54 | 36.46456 | 102.27423 | 10488 ft | 158 kts | 289° |
| 2026-05-04 09:54 | 36.46819 | 102.26133 | 10302 ft | 158 kts | 289° |
| 2026-05-04 09:55 | 36.47180 | 102.24849 | 10106 ft | 156 kts | 289° |
| 2026-05-04 09:55 | 36.47539 | 102.23572 | 9920 ft | 157 kts | 289° |
| 2026-05-04 09:55 | 36.47900 | 102.22287 | 9727 ft | 158 kts | 289° |
| 2026-05-04 09:55 | 36.48261 | 102.21004 | 9514 ft | 156 kts | 290° |
| 2026-05-04 09:56 | 36.48617 | 102.19734 | 9318 ft | 155 kts | 289° |
| 2026-05-04 09:56 | 36.48974 | 102.18463 | 9084 ft | 156 kts | 289° |
| 2026-05-04 09:56 | 36.49330 | 102.17191 | 8898 ft | 156 kts | 289° |
| 2026-05-04 09:56 | 36.49689 | 102.15911 | 8717 ft | 158 kts | 289° |
| 2026-05-04 09:57 | 36.50051 | 102.14621 | 8537 ft | 158 kts | 289° |
| 2026-05-04 09:57 | 36.50410 | 102.13338 | 8352 ft | 158 kts | 289° |
| 2026-05-04 09:57 | 36.50769 | 102.12053 | 8154 ft | 157 kts | 289° |
| 2026-05-04 09:57 | 36.51132 | 102.10772 | 7953 ft | 156 kts | 289° |
| 2026-05-04 09:58 | 36.51479 | 102.09518 | 7706 ft | 153 kts | 289° |
| 2026-05-04 09:58 | 36.51820 | 102.08266 | 7483 ft | 152 kts | 290° |
| 2026-05-04 09:58 | 36.52181 | 102.07033 | 7267 ft | 152 kts | 289° |
| 2026-05-04 10:00 | 36.53162 | 102.03032 | 7068 ft | 10 kts | 214° |
| 2026-05-04 10:00 | 36.53108 | 102.03058 | 7069 ft | 11 kts | 115° |
| 2026-05-04 10:02 | 36.52875 | 102.03892 | 7066 ft | 18 kts | 109° |
| 2026-05-04 10:04 | 36.52660 | 102.04354 | 7095 ft | 4 kts | 109° |
| 2026-05-04 10:04 | 36.52628 | 102.04371 | 7095 ft | 7 kts | 188° |
| 2026-05-04 10:04 | 36.52596 | 102.04358 | 7101 ft | 3 kts | 198° |
| 2026-05-04 10:04 | 36.52588 | 102.04354 | 7101 ft | 0 kts | 198° |
| 2026-05-04 10:05 | 36.52586 | 102.04353 | 7101 ft | 0 kts | 198° |